Flight Track Log - Related Links

Times and Time Zones

All times are in EDT time to prevent confusion due to time zone crossing. See the N932CD flight status page for this flight to view local times or setup timezone preferences in your user account.

Time Position Orientation Groundspeed Altitude Reporting Facility
EDT Latitude Longitude Course Direction KTS MPH feet Rate Location/Type
Fri 05:27:00 PM 34.4242 -77.1896 235° Southwest  Level Estimated
Fri 05:28:00 PM 34.4070 -77.2189 234° Southwest  Level Estimated
Fri 05:29:00 PM 34.3897 -77.2482 234° Southwest  Level Estimated
Fri 05:30:00 PM 34.3724 -77.2774 234° Southwest  Level Estimated
Fri 05:31:00 PM 34.3552 -77.3067 234° Southwest  Level Estimated
Fri 05:32:00 PM 34.3379 -77.3359 234° Southwest  Level Estimated
Fri 05:33:00 PM 34.3206 -77.3651 234° Southwest  Level Estimated
Fri 05:34:00 PM 34.3033 -77.3943 234° Southwest  Level Estimated
Fri 05:35:00 PM 34.2860 -77.4235 234° Southwest  Level Estimated
Fri 05:36:00 PM 34.2687 -77.4527 234° Southwest  Level Estimated
Fri 05:37:00 PM 34.2514 -77.4819 234° Southwest  Level Estimated
Fri 05:38:00 PM 34.2341 -77.5110 234° Southwest  Level Estimated
Fri 05:39:00 PM 34.2167 -77.5402 234° Southwest  Level Estimated
Fri 05:40:00 PM 34.1994 -77.5693 234° Southwest  Level Estimated
Fri 05:41:00 PM 34.1820 -77.5984 234° Southwest  Level Estimated
Fri 05:42:00 PM 34.1647 -77.6275 234° Southwest  Level Estimated
Fri 05:43:00 PM 34.1473 -77.6566 234° Southwest  Level Estimated
Fri 05:44:00 PM 34.1300 -77.6857 234° Southwest  Level Estimated
Fri 05:45:00 PM 34.1126 -77.7148 234° Southwest  Level Estimated
Fri 05:46:00 PM 34.0952 -77.7438 234° Southwest  Level Estimated
Fri 05:47:00 PM 34.0779 -77.7729 234° Southwest  Level Estimated
Fri 05:48:00 PM 34.0605 -77.8019 234° Southwest  Level Estimated
Fri 05:49:00 PM 34.0431 -77.8309 234° Southwest  Level Estimated
Fri 05:50:00 PM 34.0257 -77.8599 234° Southwest  Level Estimated
Fri 05:51:00 PM 34.0083 -77.8889 234° Southwest  Level Estimated
Fri 05:52:00 PM 33.9908 -77.9179 234° Southwest  Level Estimated
Fri 05:53:00 PM 33.9735 -77.9468 234° Southwest  Level Estimated
Fri 05:54:00 PM 33.9561 -77.9756 234° Southwest  Level Estimated
Fri 05:55:00 PM 33.9388 -78.0045 234° Southwest  Level Estimated
Fri 05:56:00 PM 33.9214 -78.0333 234° Southwest  Level Estimated
Fri 05:57:00 PM 33.9040 -78.0621 234° Southwest  Level Estimated
Fri 05:58:00 PM 33.8866 -78.0909 234° Southwest  Level Estimated
Fri 05:59:00 PM 33.8692 -78.1197 234° Southwest  Level Estimated
Fri 06:00:00 PM 33.8518 -78.1485 234° Southwest  Level Estimated
Fri 06:01:00 PM 33.8344 -78.1773 234° Southwest  Level Estimated
Fri 06:02:00 PM 33.8170 -78.2060 234° Southwest  Level Estimated
Fri 06:03:00 PM 33.7995 -78.2348 234° Southwest  Level Estimated
Fri 06:04:00 PM 33.7821 -78.2635 234° Southwest  Level Estimated
Fri 06:05:00 PM 33.7647 -78.2922 234° Southwest  Level Estimated
Fri 06:06:00 PM 33.7472 -78.3209 234° Southwest  Level Estimated
Fri 06:07:00 PM 33.7298 -78.3496 234° Southwest  Level Estimated
Fri 06:08:00 PM 33.7123 -78.3783 234° Southwest  Level Estimated
Fri 06:09:00 PM 33.6949 -78.4070 234° Southwest  Level Estimated
Fri 06:10:00 PM 33.6774 -78.4357 234° Southwest  Level Estimated
Fri 06:11:00 PM 33.6599 -78.4643 234° Southwest  Level Estimated
Fri 06:12:00 PM 33.6425 -78.4929 234° Southwest  Level Estimated
Fri 06:13:00 PM 33.6250 -78.5216 234° Southwest  Level Estimated
Fri 06:14:00 PM 33.6075 -78.5502 234° Southwest  Level Estimated
Fri 06:15:00 PM 33.5900 -78.5788 234° Southwest  Level Estimated
Fri 06:16:00 PM 33.5725 -78.6074 234° Southwest  Level Estimated
Fri 06:17:00 PM 33.5550 -78.6360 234° Southwest  Level Estimated
Fri 06:18:00 PM 33.5374 -78.6645 234° Southwest  Level Estimated
Fri 06:19:00 PM 33.5199 -78.6931 234° Southwest  Level Estimated
Fri 06:20:00 PM 33.5024 -78.7216 234° Southwest  Level Estimated
Fri 06:21:00 PM 33.4848 -78.7502 234° Southwest  Level Estimated
Fri 06:22:00 PM 33.4673 -78.7787 234° Southwest  Level Estimated
Fri 06:23:00 PM 33.4497 -78.8072 234° Southwest  Level Estimated
Fri 06:24:00 PM 33.4322 -78.8357 234° Southwest  Level Estimated
Fri 06:25:00 PM 33.4146 -78.8642 234° Southwest  Level Estimated
Fri 06:26:00 PM 33.3970 -78.8927 234° Southwest  Level Estimated
Fri 06:27:00 PM 33.3795 -78.9211 234° Southwest  Level Estimated
Fri 06:28:00 PM 33.3619 -78.9496 234° Southwest  Level Estimated
Fri 06:29:00 PM 33.3443 -78.9780 233° Southwest  Level Estimated
Fri 06:30:00 PM 33.3267 -79.0065 233° Southwest  Level Estimated
Fri 06:31:00 PM 33.3091 -79.0349 233° Southwest  Level Estimated
Fri 06:32:00 PM 33.2915 -79.0633 233° Southwest  Level Estimated
Fri 06:33:00 PM 33.2738 -79.0917 233° Southwest  Level Estimated
Fri 06:34:00 PM 33.2562 -79.1201 233° Southwest  Level Estimated
Fri 06:35:00 PM 33.2386 -79.1485 233° Southwest  Level Estimated
Fri 06:36:00 PM 33.2209 -79.1768 233° Southwest  Level Estimated
Fri 06:37:00 PM 33.2033 -79.2052 233° Southwest  Level Estimated
Fri 06:38:00 PM 33.1856 -79.2335 233° Southwest  Level Estimated
Fri 06:39:00 PM 33.1680 -79.2618 233° Southwest  Level Estimated
Fri 06:40:00 PM 33.1503 -79.2902 233° Southwest  Level Estimated
Fri 06:41:00 PM 33.1327 -79.3185 233° Southwest  Level Estimated
Fri 06:42:00 PM 33.1150 -79.3467 233° Southwest  Level Estimated
Fri 06:43:00 PM 33.0973 -79.3750 233° Southwest  Level Estimated
Fri 06:44:00 PM 33.0796 -79.4033 233° Southwest  Level Estimated
Fri 06:45:00 PM 33.0619 -79.4316 233° Southwest  Level Estimated
Fri 06:46:00 PM 33.0442 -79.4598 233° Southwest  Level Estimated
Fri 06:47:00 PM 33.0265 -79.4881 233° Southwest  Level Estimated
Fri 06:48:00 PM 33.0088 -79.5163 233° Southwest  Level Estimated
Fri 06:49:00 PM 32.9911 -79.5445 233° Southwest  Level Estimated
Fri 06:50:00 PM 32.9733 -79.5727 233° Southwest  Level Estimated
Fri 06:51:00 PM 32.9556 -79.6009 233° Southwest  Level Estimated
Fri 06:52:00 PM 32.9379 -79.6291 233° Southwest  Level Estimated
Fri 06:53:00 PM 32.9201 -79.6572 233° Southwest  Level Estimated
Fri 06:54:00 PM 32.9024 -79.6854 233° Southwest  Level Estimated
Fri 06:55:00 PM 32.8846 -79.7135 233° Southwest  Level Estimated
Fri 06:56:00 PM 32.8668 -79.7417 233° Southwest  Level Estimated
Fri 06:57:00 PM 32.8491 -79.7698 233° Southwest  Level Estimated
Fri 06:58:00 PM 32.8313 -79.7979 233° Southwest  Level Estimated
Fri 06:59:00 PM 32.8135 -79.8260 233° Southwest  Level Estimated
Fri 07:00:00 PM 32.7957 -79.8541 233° Southwest  Level Estimated
Fri 07:01:00 PM 32.7779 -79.8822 233° Southwest  Level Estimated
Fri 07:02:00 PM 32.7601 -79.9102 233° Southwest  Level Estimated
Fri 07:03:00 PM 32.7423 -79.9383 233° Southwest  Level Estimated
Fri 07:04:00 PM 32.7245 -79.9663 233° Southwest  Level Estimated
Fri 07:05:00 PM 32.7067 -79.9944 233° Southwest  Level Estimated
Fri 07:06:00 PM 32.7010 -80.0033 233° Southwest  Level Estimated
Fri 07:07:00 PM 32.7010 -80.0033 180° South  Level Estimated
Fri 07:08:00 PM 32.7010 -80.0033 180° South  Level Estimated
Fri 07:09:00 PM 32.7010 -80.0033 180° South  Level Estimated
Fri 07:10:00 PM 32.7010 -80.0033 180° South  Level Estimated
Fri 07:11:00 PM 32.7010 -80.0033 180° South  Level Estimated
Fri 07:12:00 PM 32.7010 -80.0033 180° South  Level Estimated
Fri 07:13:00 PM 32.7010 -80.0033 180° South  Level Estimated
Fri 07:14:00 PM 32.7010 -80.0033 180° South  Level Estimated
Fri 07:15:00 PM 32.7010 -80.0033 180° South  Level Estimated
Fri 07:16:00 PM 32.7010 -80.0033 180° South  Level Estimated
Fri 07:17:00 PM 32.7010 -80.0033 180° South  Level Estimated
Fri 07:18:00 PM 32.7010 -80.0033 180° South  Level Estimated
Fri 07:19:00 PM 32.7010 -80.0033 180° South  Level Estimated
Fri 07:20:00 PM 32.7010 -80.0033 180° South  Level Estimated
Fri 07:21:00 PM 32.7010 -80.0033 180° South  Level Estimated
Fri 07:22:00 PM 32.7010 -80.0033 180° South  Level Estimated
Fri 07:23:00 PM 32.7010 -80.0033 180° South  Level Estimated

Login

Don't have an account? Register now (free) for customized features, flight alerts, and more!